createdAt,value
2023-05-05T00:04:05.592Z,8.46
2023-05-05T00:09:08.514Z,8.44
2023-05-05T00:14:11.488Z,8.44
2023-05-05T00:19:14.277Z,8.38
2023-05-05T00:24:17.096Z,8.30
2023-05-05T00:29:19.890Z,8.23
2023-05-05T00:34:22.901Z,8.20
2023-05-05T00:39:25.698Z,8.21
2023-05-05T00:44:37.968Z,8.20
2023-05-05T00:49:41.245Z,8.14
2023-05-05T00:54:44.134Z,8.06
2023-05-05T00:59:49.367Z,7.97
2023-05-05T01:04:52.818Z,7.92
2023-05-05T01:10:18.001Z,7.86
2023-05-05T01:15:31.786Z,7.79
2023-05-05T01:20:50.408Z,7.73
2023-05-05T01:26:20.091Z,7.69
2023-05-05T01:31:38.974Z,7.65
2023-05-05T01:36:46.157Z,7.65
2023-05-05T01:41:54.257Z,7.64
2023-05-05T01:47:01.350Z,7.59
2023-05-05T01:52:06.150Z,7.57
2023-05-05T01:57:11.335Z,7.54
2023-05-05T02:02:16.251Z,7.49
2023-05-05T02:07:21.547Z,7.45
2023-05-05T02:12:25.080Z,7.40
2023-05-05T02:17:31.264Z,7.34
2023-05-05T02:22:34.204Z,7.27
2023-05-05T02:27:40.974Z,7.21
2023-05-05T02:33:00.223Z,7.15
2023-05-05T02:38:05.732Z,7.14
2023-05-05T02:43:11.962Z,7.10
2023-05-05T02:48:15.134Z,7.03
2023-05-05T02:53:22.347Z,6.95
2023-05-05T02:58:34.870Z,6.93
2023-05-05T03:03:50.413Z,6.91
2023-05-05T03:09:03.210Z,6.86
2023-05-05T03:14:10.094Z,6.83
2023-05-05T03:19:14.516Z,6.83
2023-05-05T03:24:19.016Z,6.83
2023-05-05T03:29:21.982Z,6.92
2023-05-05T03:34:25.763Z,7.17
2023-05-05T03:39:28.535Z,7.42
2023-05-05T03:44:31.361Z,7.55
2023-05-05T03:49:34.135Z,7.75
2023-05-05T03:54:38.347Z,7.91
2023-05-05T03:59:41.406Z,7.93
2023-05-05T04:04:44.965Z,7.95
2023-05-05T04:09:47.726Z,7.79
2023-05-05T04:14:50.484Z,7.86
2023-05-05T04:19:53.255Z,7.89
2023-05-05T04:24:56.036Z,7.85
2023-05-05T04:29:58.881Z,7.67
2023-05-05T04:35:01.706Z,7.47
2023-05-05T04:40:04.914Z,7.38
2023-05-05T04:45:10.357Z,7.46
2023-05-05T04:50:13.939Z,7.53
2023-05-05T04:55:16.712Z,7.57
2023-05-05T05:00:19.526Z,7.62
2023-05-05T05:05:22.512Z,7.74
2023-05-05T05:10:25.740Z,8.02
2023-05-05T05:15:28.590Z,8.29
2023-05-05T05:20:31.762Z,8.63
2023-05-05T05:25:35.983Z,8.91
2023-05-05T05:30:38.951Z,9.27
2023-05-05T05:35:42.923Z,9.62
2023-05-05T05:40:45.711Z,9.88
2023-05-05T05:45:48.549Z,10.23
2023-05-05T05:50:51.469Z,10.40
2023-05-05T05:55:54.182Z,10.75
2023-05-05T06:00:59.162Z,10.81
2023-05-05T06:06:02.178Z,10.70
2023-05-05T06:11:05.038Z,10.79
2023-05-05T06:16:08.410Z,10.94
2023-05-05T06:21:11.450Z,11.22
2023-05-05T06:26:14.494Z,11.88
2023-05-05T06:31:17.573Z,13.23
2023-05-05T06:36:20.514Z,16.57
2023-05-05T06:41:23.269Z,19.12
2023-05-05T06:46:28.336Z,20.31
2023-05-05T06:51:31.846Z,21.14
2023-05-05T06:56:34.812Z,21.75
2023-05-05T07:01:37.517Z,22.52
2023-05-05T07:06:40.404Z,22.79
2023-05-05T07:11:52.006Z,23.11
2023-05-05T07:16:54.829Z,22.61
2023-05-05T07:22:03.588Z,20.32
2023-05-05T07:32:24.306Z,20.88
2023-05-05T07:37:36.504Z,21.59
2023-05-05T07:42:39.340Z,22.03
2023-05-05T07:47:42.281Z,22.42
2023-05-05T07:52:51.824Z,22.49
2023-05-05T07:57:59.098Z,22.17
2023-05-05T08:03:01.972Z,21.47
2023-05-05T08:08:07.564Z,20.95
2023-05-05T08:13:10.335Z,20.43
2023-05-05T08:18:14.938Z,20.30
2023-05-05T08:23:17.739Z,20.02
2023-05-05T08:28:20.531Z,19.63
2023-05-05T08:33:23.273Z,19.41
2023-05-05T08:38:27.960Z,18.82
2023-05-05T08:43:31.034Z,18.07
2023-05-05T08:48:35.745Z,17.87
2023-05-05T08:53:51.755Z,17.70
2023-05-05T08:58:56.455Z,17.33
2023-05-05T09:04:04.894Z,17.04
2023-05-05T09:09:08.544Z,16.67
2023-05-05T09:19:31.736Z,16.20
2023-05-05T09:24:34.610Z,15.72
2023-05-05T09:29:37.935Z,15.33
2023-05-05T09:34:41.283Z,15.13
2023-05-05T09:39:54.767Z,14.65
2023-05-05T09:44:59.782Z,14.06
2023-05-05T09:50:11.447Z,13.83
2023-05-05T09:55:19.023Z,13.78
2023-05-05T10:00:41.804Z,13.63
2023-05-05T10:05:55.481Z,13.10
2023-05-05T10:11:08.072Z,13.10
2023-05-05T10:16:14.748Z,13.37
2023-05-05T10:21:25.674Z,13.61
2023-05-05T10:26:34.892Z,13.27
2023-05-05T10:31:47.205Z,12.95
2023-05-05T10:36:51.753Z,12.82
2023-05-05T10:41:55.882Z,12.82
2023-05-05T10:47:00.496Z,13.10
2023-05-05T10:52:06.987Z,13.46
2023-05-05T10:57:12.129Z,13.53
2023-05-05T11:02:29.605Z,13.33
2023-05-05T11:07:50.124Z,13.40
2023-05-05T11:12:58.333Z,13.61
2023-05-05T11:18:05.775Z,13.65
2023-05-05T11:23:29.977Z,13.43
2023-05-05T11:28:32.883Z,13.04
2023-05-05T11:33:37.763Z,12.90
2023-05-05T11:38:55.969Z,13.02
2023-05-05T11:44:11.905Z,13.26
2023-05-05T11:49:29.066Z,13.17
2023-05-05T11:54:32.945Z,13.01
2023-05-05T11:59:49.650Z,12.89
2023-05-05T12:04:52.994Z,12.95
2023-05-05T12:09:56.169Z,13.34
2023-05-05T12:14:59.076Z,13.53
2023-05-05T12:20:01.933Z,13.58
2023-05-05T12:25:07.013Z,13.87
2023-05-05T12:30:12.657Z,14.03
2023-05-05T12:35:16.185Z,13.88
2023-05-05T12:40:48.551Z,13.56
2023-05-05T12:46:12.224Z,13.68
2023-05-05T12:51:16.892Z,13.76
2023-05-05T12:56:38.170Z,13.78
2023-05-05T13:01:58.014Z,13.84
2023-05-05T13:07:14.910Z,13.78
2023-05-05T13:12:18.629Z,13.71
2023-05-05T13:17:21.408Z,13.76
2023-05-05T13:22:24.213Z,13.63
2023-05-05T13:27:27.319Z,13.63
2023-05-05T13:32:30.174Z,13.71
2023-05-05T13:37:33.010Z,13.70
2023-05-05T13:42:35.769Z,13.59
2023-05-05T13:47:39.087Z,13.70
2023-05-05T13:52:42.058Z,13.71
2023-05-05T13:57:44.956Z,13.70
2023-05-05T14:02:48.296Z,13.72
2023-05-05T14:07:51.363Z,13.64
2023-05-05T14:12:54.218Z,13.77
2023-05-05T14:17:57.199Z,13.82
2023-05-05T14:23:00.534Z,13.78
2023-05-05T14:28:04.172Z,13.64
2023-05-05T14:33:08.271Z,13.50
2023-05-05T14:38:11.283Z,13.34
2023-05-05T14:43:16.323Z,13.07
2023-05-05T14:48:22.256Z,13.01
2023-05-05T14:53:25.279Z,13.06
2023-05-05T14:58:28.130Z,12.99
2023-05-05T15:03:31.733Z,13.02
2023-05-05T15:08:34.952Z,13.16
2023-05-05T15:13:41.694Z,13.28
2023-05-05T15:18:44.450Z,13.26
2023-05-05T15:23:47.195Z,13.31
2023-05-05T15:28:50.467Z,13.32
2023-05-05T15:33:53.376Z,13.22
2023-05-05T15:38:56.817Z,13.22
2023-05-05T15:44:00.793Z,13.31
2023-05-05T15:49:03.720Z,13.36
2023-05-05T15:54:07.845Z,13.28
2023-05-05T15:59:10.613Z,13.19
2023-05-05T16:04:13.834Z,13.00
2023-05-05T16:09:17.709Z,12.80
2023-05-05T16:14:20.812Z,12.61
2023-05-05T16:19:30.883Z,12.46
2023-05-05T16:24:33.738Z,12.35
2023-05-05T16:29:36.798Z,12.22
2023-05-05T16:34:39.733Z,12.12
2023-05-05T16:39:42.608Z,12.00
2023-05-05T16:44:45.389Z,11.90
2023-05-05T16:49:48.223Z,11.80
2023-05-05T16:54:56.110Z,11.69
2023-05-05T16:59:59.404Z,11.54
2023-05-05T17:05:02.736Z,11.40
2023-05-05T17:10:06.902Z,11.26
2023-05-05T17:15:10.261Z,11.17
2023-05-05T17:20:13.399Z,11.06
2023-05-05T17:25:19.187Z,10.94
2023-05-05T17:30:22.189Z,10.82
2023-05-05T17:35:25.046Z,10.72
2023-05-05T17:40:28.958Z,10.62
2023-05-05T17:45:32.211Z,10.50
2023-05-05T17:50:35.023Z,10.40
2023-05-05T17:55:37.981Z,10.28
2023-05-05T18:00:40.873Z,10.16
2023-05-05T18:05:43.747Z,10.02
2023-05-05T18:10:46.709Z,9.88
2023-05-05T18:15:49.487Z,9.75
2023-05-05T18:20:52.335Z,9.63
2023-05-05T18:25:55.153Z,9.50
2023-05-05T18:30:57.923Z,9.39
2023-05-05T18:36:03.802Z,9.28
2023-05-05T18:41:06.745Z,9.18
2023-05-05T18:46:09.497Z,9.07
2023-05-05T18:51:12.297Z,8.95
2023-05-05T18:56:15.047Z,8.84
2023-05-05T19:01:18.019Z,8.71
2023-05-05T19:06:20.945Z,8.55
2023-05-05T19:11:24.087Z,8.39
2023-05-05T19:16:27.880Z,8.23
2023-05-05T19:21:32.035Z,8.08
2023-05-05T19:26:34.817Z,7.95
2023-05-05T19:31:37.551Z,7.84
2023-05-05T19:36:40.334Z,7.72
2023-05-05T19:41:43.099Z,7.62
2023-05-05T19:46:48.011Z,7.51
2023-05-05T19:51:52.167Z,7.40
2023-05-05T19:56:57.176Z,7.30
2023-05-05T20:02:01.907Z,7.20
2023-05-05T20:07:04.707Z,7.10
2023-05-05T20:12:07.753Z,7.00
2023-05-05T20:17:12.060Z,6.89
2023-05-05T20:22:14.809Z,6.80
2023-05-05T20:27:17.597Z,6.71
2023-05-05T20:32:22.242Z,6.61
2023-05-05T20:37:27.174Z,6.53
2023-05-05T20:42:31.253Z,6.46
2023-05-05T20:47:35.754Z,6.40
2023-05-05T20:52:38.718Z,6.33
2023-05-05T20:57:41.495Z,6.25
2023-05-05T21:02:44.488Z,6.16
2023-05-05T21:07:47.537Z,6.06
2023-05-05T21:12:50.473Z,5.96
2023-05-05T21:17:55.190Z,5.88
2023-05-05T21:22:57.997Z,5.79
2023-05-05T21:28:00.767Z,5.69
2023-05-05T21:33:03.765Z,5.59
2023-05-05T21:38:06.720Z,5.50
2023-05-05T21:43:09.532Z,5.42
2023-05-05T21:48:12.339Z,5.35
2023-05-05T21:53:15.332Z,5.27
2023-05-05T21:58:18.073Z,5.21
2023-05-05T22:03:21.360Z,5.17
2023-05-05T22:08:24.503Z,5.11
2023-05-05T22:13:27.312Z,5.06
2023-05-05T22:18:30.128Z,5.00
2023-05-05T22:23:32.933Z,4.94
2023-05-05T22:28:36.222Z,4.87
2023-05-05T22:33:39.036Z,4.80
2023-05-05T22:38:42.369Z,4.74
2023-05-05T22:43:45.283Z,4.69
2023-05-05T22:48:49.134Z,4.63
2023-05-05T22:53:51.975Z,4.58
2023-05-05T22:58:54.802Z,4.53
2023-05-05T23:03:57.600Z,4.48
2023-05-05T23:09:02.743Z,4.42
2023-05-05T23:14:05.535Z,4.35
2023-05-05T23:19:08.312Z,4.28
2023-05-05T23:24:11.138Z,4.23
2023-05-05T23:29:13.931Z,4.17
2023-05-05T23:34:16.876Z,4.13
2023-05-05T23:39:19.698Z,4.09
2023-05-05T23:44:22.466Z,4.05
2023-05-05T23:49:26.469Z,4.02
2023-05-05T23:54:29.495Z,3.98
2023-05-05T23:59:32.291Z,3.94
